Hauptseite
METAR-TAF:

METAR-TAF

Flughäfen :

Finkenwerder, Deutschland

Flugplatz Hamburg-Finkenwerder

Breite: 53-32N, Länge: 009-50E, Höhe: 5 m

Beobachtung

Neuester Wetterbericht von vor 6 Stunden und 29 Minuten, um 17:50 UTC
Wind 3 kt aus unterschiedlichen Richtungen
Temperatur 19°C
Luftfeuchtigkeit 56%
Luftdruck 1008 hPa
Sichtweite 10 km oder mehr
keine Wolken unter 1500 m und keine Kumulonimbus oder Gewitterwolken

METAR: EDHI 271750Z VRB03KT CAVOK 19/10 Q1008

Zeit: 02:19 (00:19 UTC)

Prognose

Neuester Wetterbericht von vor 7 Stunden und 19 Minuten, um 17:00 UTC
Gültige Prognose vom 27 um 18 UTC bis 27 um 21 UTC
Wind 7 kt aus Ost/Nordost
Sichtweite 10 km oder mehr
Leicht bewölkt in der Höhe von 4000 ft
Zeitweise
vom 27 um 18 UTC bis 27 um 21 UTC
Wind 4 kt aus Südost

TAF: EDHI 271700Z 2718/2721 07007KT 9999 FEW040 TEMPO 2718/2721 13004KT

Wetterbeobachtungen und Prognosen von mehr als 4000 Flughäfen (METAR und TAF Bericht).

Die verfügbaren Stationen werden durch gelbe und rote Markierungen auf der Karte dargestellt.

Führen Sie die Maus auf sie, um den Namen der Station zu sehen.

Darauf klicken, um die Beobachtung von Wetterbeobachtungen und Prognosen zu sehen.

Um die Karte zu ändern : klicken Sie auf den grünen Tasten mit einem schwarzen Kreuz Zum Vergrößern, auf den grünen Button mit einem Gedankenstrich zu verkleinern, oder auf die grünen Pfeile für benachbarte Karten.


METAR-TAF: